createdAt,value
2022-11-07T00:01:03.802Z,-28.2
2022-11-07T00:03:05.311Z,-28.3
2022-11-07T00:05:06.857Z,-28.2
2022-11-07T00:09:09.375Z,-28.2
2022-11-07T00:11:11.156Z,-28.4
2022-11-07T00:13:12.328Z,-28.4
2022-11-07T00:15:13.326Z,-28.2
2022-11-07T00:17:15.206Z,-28
2022-11-07T00:19:17.100Z,-28.2
2022-11-07T00:21:18.089Z,-28.2
2022-11-07T00:23:19.602Z,-28.5
2022-11-07T00:25:21.333Z,-28.3
2022-11-07T00:31:25.279Z,-28.4
2022-11-07T00:33:26.676Z,-28.2
2022-11-07T00:35:28.059Z,-28.4
2022-11-07T00:37:29.892Z,-28
2022-11-07T00:39:30.867Z,-28.1
2022-11-07T00:41:32.560Z,-28.4
2022-11-07T00:45:36.169Z,-28.4
2022-11-07T00:47:37.247Z,-28.5
2022-11-07T00:49:38.657Z,-28.3
2022-11-07T00:51:39.761Z,-28.6
2022-11-07T00:57:44.383Z,-28.4
2022-11-07T00:59:45.954Z,-28.2
2022-11-07T01:01:47.918Z,-28
2022-11-07T01:03:48.985Z,-28.5
2022-11-07T01:05:50.328Z,-28.5
2022-11-07T01:07:52.082Z,-28.4
2022-11-07T01:11:55.452Z,-28.4
2022-11-07T01:13:57.340Z,-28.4
2022-11-07T01:15:58.869Z,-28.6
2022-11-07T01:18:00.095Z,-28.4
2022-11-07T01:20:45.434Z,-28.2
2022-11-07T01:22:46.810Z,-28.3
2022-11-07T01:24:48.610Z,-28.2
2022-11-07T01:26:49.708Z,-28.3
2022-11-07T01:28:50.913Z,-28.3
2022-11-07T01:30:52.617Z,-28.3
2022-11-07T01:34:55.742Z,-28.4
2022-11-07T01:38:58.223Z,-28.2
2022-11-07T01:41:00.080Z,-28.4
2022-11-07T01:43:01.191Z,-28.3
2022-11-07T01:45:10.574Z,-28.3
2022-11-07T01:49:05.805Z,-28.3
2022-11-07T01:51:07.235Z,-28.5
2022-11-07T01:53:08.711Z,-28.3
2022-11-07T01:55:10.188Z,-28.5
2022-11-07T01:57:11.717Z,-28.2
2022-11-07T01:59:13.326Z,-28.4
2022-11-07T02:01:14.314Z,-28.4
2022-11-07T02:03:16.533Z,-28.2
2022-11-07T02:05:17.200Z,-28.3
2022-11-07T02:07:19.044Z,-28.1
2022-11-07T02:09:20.491Z,-28.1
2022-11-07T02:11:21.521Z,-28.3
2022-11-07T02:13:23.274Z,-28
2022-11-07T02:15:25.166Z,-28.3
2022-11-07T02:17:26.559Z,-28.2
2022-11-07T02:19:27.757Z,-28.4
2022-11-07T02:21:29.476Z,-28.3
2022-11-07T02:23:31.116Z,-28.3
2022-11-07T02:25:32.397Z,-28.2
2022-11-07T02:27:34.164Z,-28.2
2022-11-07T02:29:35.872Z,-28.3
2022-11-07T02:31:37.098Z,-28
2022-11-07T02:33:38.558Z,-28
2022-11-07T02:35:39.902Z,-28.5
2022-11-07T02:37:41.384Z,-28.2
2022-11-07T02:39:42.607Z,-28.3
2022-11-07T02:41:43.781Z,-28.5
2022-11-07T02:43:44.758Z,-28.4
2022-11-07T02:47:47.949Z,-28.4
2022-11-07T02:49:49.164Z,-28.4
2022-11-07T02:51:50.635Z,-28.4
2022-11-07T02:53:52.153Z,-28.4
2022-11-07T02:55:53.734Z,-28.2
2022-11-07T02:57:54.943Z,-28.2
2022-11-07T02:59:56.058Z,-28
2022-11-07T03:01:57.594Z,-28.1
2022-11-07T03:03:59.358Z,-28.2
2022-11-07T03:06:00.727Z,-28.1
2022-11-07T03:10:03.511Z,-28.4
2022-11-07T03:12:05.208Z,-28.2
2022-11-07T03:14:06.648Z,-28.3
2022-11-07T03:16:07.797Z,-28.3
2022-11-07T03:18:09.472Z,-28.1
2022-11-07T03:20:11.271Z,-28.3
2022-11-07T03:22:12.743Z,-28.1
2022-11-07T03:24:14.453Z,-28.6
2022-11-07T03:26:15.495Z,-28.4
2022-11-07T03:30:18.733Z,-28.4
2022-11-07T03:32:20.324Z,-28
2022-11-07T03:34:21.573Z,-28.2
2022-11-07T03:36:22.752Z,-28.2
2022-11-07T03:38:23.939Z,-28.2
2022-11-07T03:40:25.531Z,-28
2022-11-07T03:42:26.685Z,-28.2
2022-11-07T03:46:29.555Z,-28
2022-11-07T03:48:30.523Z,-28.1
2022-11-07T03:50:32.231Z,-28.5
2022-11-07T03:52:33.785Z,-28.4
2022-11-07T03:58:37.817Z,-28.2
2022-11-07T04:00:38.823Z,-28.3
2022-11-07T04:02:40.254Z,-28.5
2022-11-07T04:04:41.920Z,-28.3
2022-11-07T04:06:43.296Z,-28.2
2022-11-07T04:08:44.735Z,-28.6
2022-11-07T04:10:46.615Z,-28.3
2022-11-07T04:12:47.837Z,-28.2
2022-11-07T04:14:49.086Z,-28.3
2022-11-07T04:16:50.459Z,-28.5
2022-11-07T04:18:51.698Z,-28.2
2022-11-07T04:20:52.755Z,-28.3
2022-11-07T04:22:54.219Z,-28.2
2022-11-07T04:24:55.293Z,-28.2
2022-11-07T04:26:57.189Z,-28.6
2022-11-07T04:28:58.798Z,-28.3
2022-11-07T04:31:00.172Z,-28.4
2022-11-07T04:33:01.201Z,-28.2
2022-11-07T04:35:02.756Z,-28.3
2022-11-07T04:37:04.227Z,-28.3
2022-11-07T04:39:05.254Z,-28.3
2022-11-07T04:41:06.232Z,-28.2
2022-11-07T04:45:08.363Z,-28.3
2022-11-07T04:47:09.962Z,-28.2
2022-11-07T04:49:11.013Z,-28.1
2022-11-07T04:51:12.201Z,-28.2
2022-11-07T04:53:13.441Z,-28.3
2022-11-07T04:55:14.251Z,-28.3
2022-11-07T04:57:15.522Z,-28.3
2022-11-07T04:59:16.602Z,-28.5
2022-11-07T05:01:17.780Z,-28.2
2022-11-07T05:03:18.998Z,-28.4
2022-11-07T05:05:20.645Z,-28.2
2022-11-07T05:07:22.047Z,-28.3
2022-11-07T05:13:26.202Z,-28.5
2022-11-07T05:15:28.031Z,-28
2022-11-07T05:17:29.293Z,-28.1
2022-11-07T05:19:31.096Z,-28.5
2022-11-07T05:21:32.663Z,-28.4
2022-11-07T05:23:34.257Z,-28.3
2022-11-07T05:25:36.070Z,-28.5
2022-11-07T05:27:37.295Z,-28.4
2022-11-07T05:29:38.946Z,-28.3
2022-11-07T05:33:42.514Z,-28.3
2022-11-07T05:35:43.670Z,-28.3
2022-11-07T05:37:45.437Z,-28.4
2022-11-07T05:39:49.920Z,-28.2
2022-11-07T05:41:48.593Z,-28
2022-11-07T05:43:49.845Z,-28.3
2022-11-07T05:45:51.274Z,-28.3
2022-11-07T05:47:53.123Z,-28.5
2022-11-07T05:49:54.532Z,-28.4
2022-11-07T05:55:58.696Z,-28.2
2022-11-07T05:58:05.852Z,-28.4
2022-11-07T06:00:01.679Z,-28.4
2022-11-07T06:02:03.252Z,-28.5
2022-11-07T06:04:05.136Z,-28
2022-11-07T06:06:06.743Z,-28.4
2022-11-07T06:10:09.015Z,-28.3
2022-11-07T06:12:10.561Z,-28.3
2022-11-07T06:14:11.509Z,-28
2022-11-07T06:16:13.290Z,-27.9
2022-11-07T06:22:17.108Z,-28.4
2022-11-07T06:24:18.712Z,-28.4
2022-11-07T06:26:19.716Z,-28.1
2022-11-07T06:28:21.162Z,-28.5
2022-11-07T06:30:22.268Z,-28.4
2022-11-07T06:32:23.441Z,-28.4
2022-11-07T06:34:24.656Z,-28.4
2022-11-07T06:36:25.906Z,-28.3
2022-11-07T06:38:27.375Z,-28.4
2022-11-07T06:40:28.296Z,-28.4
2022-11-07T06:42:29.960Z,-28.3
2022-11-07T06:44:31.766Z,-28.1
2022-11-07T06:46:32.959Z,-28.2
2022-11-07T06:48:34.177Z,-28.4
2022-11-07T06:50:35.572Z,-28.3
2022-11-07T06:52:37.509Z,-28.4
2022-11-07T06:54:39.236Z,-28
2022-11-07T06:56:40.652Z,-28.4
2022-11-07T06:58:42.332Z,-28
2022-11-07T07:00:43.864Z,-28.2
2022-11-07T07:02:58.234Z,-28.4
2022-11-07T07:04:46.648Z,-28.4
2022-11-07T07:08:49.264Z,-28.5
2022-11-07T07:10:50.466Z,-28.2
2022-11-07T07:12:52.053Z,-28.3
2022-11-07T07:14:53.393Z,-28.4
2022-11-07T07:16:55.063Z,-28.4
2022-11-07T07:18:56.012Z,-28.1
2022-11-07T07:20:57.799Z,-28.4
2022-11-07T07:23:02.949Z,-28.5
2022-11-07T07:25:00.890Z,-28.4
2022-11-07T07:27:02.017Z,-28.4
2022-11-07T07:29:03.807Z,-28
2022-11-07T07:31:05.169Z,-28
2022-11-07T07:37:09.328Z,-28.3
2022-11-07T07:39:10.782Z,-28.2
2022-11-07T07:41:11.802Z,-28.4
2022-11-07T07:43:13.133Z,-28.2
2022-11-07T07:45:14.486Z,-28.5
2022-11-07T07:47:15.577Z,-28.3
2022-11-07T07:49:17.307Z,-28.3
2022-11-07T07:51:18.671Z,-28.2
2022-11-07T07:53:19.925Z,-27.9
2022-11-07T07:57:22.420Z,-28.3
2022-11-07T07:59:24.200Z,-28.4
2022-11-07T08:01:25.815Z,-12.2
2022-11-07T08:03:29.446Z,-4
2022-11-07T08:06:11.808Z,7
2022-11-07T08:08:13.668Z,13.1
2022-11-07T08:12:16.841Z,-4.3
2022-11-07T08:14:18.244Z,9.7
2022-11-07T08:16:19.862Z,82.4
2022-11-07T08:18:21.397Z,82.5
2022-11-07T08:20:22.922Z,0.2
2022-11-07T08:22:23.977Z,-11.1
2022-11-07T08:24:25.158Z,-17.5
2022-11-07T08:28:28.544Z,-23.2
2022-11-07T08:30:30.243Z,-26.8
2022-11-07T08:32:31.192Z,-28
2022-11-07T08:34:32.508Z,-19.7
2022-11-07T08:36:33.769Z,-1.3
2022-11-07T08:40:36.732Z,-5.8
2022-11-07T08:44:40.320Z,-2.7
2022-11-07T08:46:42.172Z,-7.1
2022-11-07T08:48:43.180Z,-12.5
2022-11-07T08:50:44.346Z,1.5
2022-11-07T08:52:46.033Z,12.3
2022-11-07T08:54:46.926Z,14.4
2022-11-07T08:56:48.281Z,32.4
2022-11-07T08:58:49.568Z,82.1
2022-11-07T09:00:50.954Z,82.1
2022-11-07T09:03:31.081Z,82.4
2022-11-07T09:04:53.636Z,82
2022-11-07T09:06:54.599Z,81.9
2022-11-07T09:08:55.781Z,81.4
2022-11-07T09:10:57.380Z,80.9
2022-11-07T09:12:58.892Z,80.6
2022-11-07T09:14:59.858Z,79.9
2022-11-07T09:17:01.029Z,79.4
2022-11-07T09:19:02.278Z,79.3
2022-11-07T09:21:03.855Z,22.2
2022-11-07T09:23:04.926Z,40.59
2022-11-07T09:25:05.951Z,47
2022-11-07T09:27:06.925Z,78
2022-11-07T09:29:08.667Z,77.3
2022-11-07T09:31:10.482Z,77.5
2022-11-07T09:33:11.793Z,76.6
2022-11-07T09:35:13.588Z,75.4
2022-11-07T09:37:14.916Z,74.6
2022-11-07T09:39:16.037Z,74.1
2022-11-07T09:41:17.526Z,73.69
2022-11-07T09:43:19.114Z,73
2022-11-07T09:45:20.305Z,72.3
2022-11-07T09:47:21.510Z,72
2022-11-07T09:49:23.098Z,71.19
2022-11-07T09:55:26.613Z,-14.3
2022-11-07T09:57:27.780Z,-4.9
2022-11-07T09:59:28.656Z,15.7
2022-11-07T10:01:30.361Z,29.9
2022-11-07T10:03:31.235Z,69.69
2022-11-07T10:05:32.513Z,68.5
2022-11-07T10:09:35.045Z,66.4
2022-11-07T10:11:36.554Z,65.9
2022-11-07T10:13:38.068Z,64
2022-11-07T10:15:39.717Z,63.4
2022-11-07T10:21:44.988Z,59.1
2022-11-07T10:23:46.753Z,3.7
2022-11-07T10:25:47.718Z,-2
2022-11-07T10:27:49.485Z,-16.6
2022-11-07T10:29:50.648Z,-23.3
2022-11-07T10:31:52.110Z,-20.8
2022-11-07T10:35:54.811Z,17.1
2022-11-07T10:37:56.449Z,53.2
2022-11-07T10:39:57.312Z,51
2022-11-07T10:41:58.178Z,53
2022-11-07T10:43:59.211Z,50.8
2022-11-07T10:46:00.671Z,48.7
2022-11-07T10:48:02.417Z,47.7
2022-11-07T10:50:04.022Z,46.3
2022-11-07T10:52:05.221Z,3.7
2022-11-07T10:54:06.639Z,-8.5
2022-11-07T10:56:07.945Z,45.3
2022-11-07T10:58:09.546Z,42.4
2022-11-07T11:00:11.216Z,-3.1
2022-11-07T11:04:14.381Z,-9.39
2022-11-07T11:06:15.354Z,6
2022-11-07T11:08:17.225Z,40.9
2022-11-07T11:10:18.509Z,-9.7
2022-11-07T11:12:19.951Z,-12.7
2022-11-07T11:14:21.666Z,-18.6
2022-11-07T11:20:25.460Z,-11.4
2022-11-07T11:22:27.339Z,-28.4
2022-11-07T11:24:28.830Z,-28.4
2022-11-07T11:26:30.187Z,-22.2
2022-11-07T11:28:31.717Z,-13.7
2022-11-07T11:30:32.813Z,-28.4
2022-11-07T11:32:34.385Z,-28.2
2022-11-07T11:34:35.867Z,-28.3
2022-11-07T11:36:36.890Z,-28.3
2022-11-07T11:38:38.131Z,-5.5
2022-11-07T11:40:39.979Z,-22.3
2022-11-07T11:42:41.703Z,-21.3
2022-11-07T11:44:43.026Z,-28.4
2022-11-07T11:46:44.159Z,-23.1
2022-11-07T11:50:46.374Z,1.3
2022-11-07T11:52:48.108Z,-11.4
2022-11-07T11:54:49.253Z,-11.7
2022-11-07T11:56:50.330Z,-15.3
2022-11-07T11:58:52.016Z,-21
2022-11-07T12:02:54.783Z,-26.7
2022-11-07T12:04:56.043Z,-28.3
2022-11-07T12:06:57.234Z,-28.2
2022-11-07T12:08:58.663Z,-22.7
2022-11-07T12:10:59.843Z,-22.7
2022-11-07T12:13:00.994Z,-28.3
2022-11-07T12:17:03.929Z,-28.3
2022-11-07T12:19:05.342Z,-18.4
2022-11-07T12:21:06.697Z,-16.29
2022-11-07T12:23:07.887Z,-10.2
2022-11-07T12:25:09.227Z,-2.09
2022-11-07T12:27:10.973Z,-7.3
2022-11-07T12:29:12.465Z,41.9
2022-11-07T12:31:14.050Z,35.4
2022-11-07T12:33:15.259Z,33
2022-11-07T12:35:16.417Z,31.5
2022-11-07T12:39:18.959Z,31
2022-11-07T12:43:21.582Z,25.7
2022-11-07T12:45:22.745Z,27.4
2022-11-07T12:47:23.950Z,22.7
2022-11-07T12:49:25.644Z,25.1
2022-11-07T12:51:27.203Z,23.7
2022-11-07T12:53:28.920Z,24.8
2022-11-07T12:55:30.360Z,23.6
2022-11-07T12:59:32.892Z,-16.29
2022-11-07T13:01:33.931Z,20.4
2022-11-07T13:03:34.796Z,19.29
2022-11-07T13:05:36.206Z,18.7
2022-11-07T13:07:37.131Z,17.5
2022-11-07T13:11:39.962Z,15
2022-11-07T13:13:41.762Z,15.2
2022-11-07T13:16:09.312Z,-28.4
2022-11-07T13:17:44.669Z,-28.3
2022-11-07T13:19:46.524Z,-28.2
2022-11-07T13:21:47.478Z,-28.5
2022-11-07T13:23:48.366Z,-28.3
2022-11-07T13:27:50.848Z,-28.1
2022-11-07T13:29:52.573Z,-28.3
2022-11-07T13:31:54.211Z,-28.3
2022-11-07T13:33:55.615Z,-28.5
2022-11-07T13:35:56.923Z,-28.4
2022-11-07T13:37:57.876Z,-28.3
2022-11-07T13:39:58.749Z,-28.4
2022-11-07T13:41:59.740Z,-28.3
2022-11-07T13:44:00.836Z,-28.5
2022-11-07T13:48:03.131Z,-28.3
2022-11-07T13:50:04.216Z,-28
2022-11-07T13:52:05.298Z,-28.5
2022-11-07T13:54:06.579Z,-28.4
2022-11-07T13:58:09.506Z,-28
2022-11-07T14:00:11.087Z,-28.2
2022-11-07T14:04:13.840Z,-28.1
2022-11-07T14:06:14.990Z,-28.4
2022-11-07T14:08:16.000Z,-28.4
2022-11-07T14:10:17.695Z,-28.3
2022-11-07T14:12:18.580Z,-28
2022-11-07T14:16:21.618Z,-28.4
2022-11-07T14:20:24.325Z,-28.2
2022-11-07T14:22:26.141Z,-28.4
2022-11-07T14:24:26.985Z,-28.4
2022-11-07T14:26:28.796Z,-28.2
2022-11-07T14:32:32.216Z,-28.7
2022-11-07T14:34:33.649Z,-28.3
2022-11-07T14:36:35.431Z,-28.2
2022-11-07T14:38:36.492Z,-28.1
2022-11-07T14:40:37.854Z,-28.2
2022-11-07T14:42:39.362Z,-28.3
2022-11-07T14:44:55.056Z,-28.4
2022-11-07T14:46:42.327Z,-28.2
2022-11-07T14:48:43.946Z,-28.1
2022-11-07T14:50:44.866Z,-28.4
2022-11-07T14:53:29.636Z,-28.5
2022-11-07T14:55:31.289Z,-28.2
2022-11-07T14:57:32.303Z,-28.1
2022-11-07T14:59:33.399Z,-28.2
2022-11-07T15:03:36.461Z,-28.4
2022-11-07T15:07:38.977Z,-28.3
2022-11-07T15:09:40.178Z,-28.3
2022-11-07T15:13:43.263Z,-28.4
2022-11-07T15:15:45.003Z,-28.5
2022-11-07T15:17:46.128Z,-28.4
2022-11-07T15:19:47.419Z,-28
2022-11-07T15:23:50.422Z,-28
2022-11-07T15:25:51.542Z,-28.3
2022-11-07T15:27:52.982Z,-28.3
2022-11-07T15:29:54.053Z,-28.2
2022-11-07T15:33:56.840Z,-28.1
2022-11-07T15:35:57.975Z,-28.4
2022-11-07T15:37:59.263Z,-28.2
2022-11-07T15:40:00.678Z,-28.6
2022-11-07T15:42:01.612Z,-28.2
2022-11-07T15:44:02.660Z,-27.9
2022-11-07T15:46:04.532Z,-28.4
2022-11-07T15:48:06.309Z,-28.6
2022-11-07T15:50:07.973Z,-28.3
2022-11-07T15:52:09.627Z,-28.1
2022-11-07T15:56:12.154Z,-28.2
2022-11-07T15:58:13.395Z,-28.3
2022-11-07T16:00:14.738Z,-28.4
2022-11-07T16:02:16.175Z,-28.1
2022-11-07T16:08:27.655Z,-28.3
2022-11-07T16:10:21.026Z,-28.1
2022-11-07T16:12:22.510Z,-28.1
2022-11-07T16:14:41.992Z,-28.5
2022-11-07T16:16:25.214Z,-28.4
2022-11-07T16:18:26.588Z,-28.4
2022-11-07T16:22:29.671Z,-28.5
2022-11-07T16:24:30.745Z,-28.6
2022-11-07T16:26:32.635Z,-28.4
2022-11-07T16:28:33.602Z,-28.3
2022-11-07T16:30:34.913Z,-28.3
2022-11-07T16:32:35.915Z,-28.3
2022-11-07T16:34:37.064Z,-28.3
2022-11-07T16:36:38.637Z,-28
2022-11-07T16:38:40.235Z,-28.3
2022-11-07T16:40:41.782Z,-28.4
2022-11-07T16:44:44.785Z,-28.3
2022-11-07T16:46:46.131Z,-28.3
2022-11-07T16:48:47.283Z,-28.5
2022-11-07T16:50:48.839Z,-28.3
2022-11-07T16:54:51.457Z,-28.6
2022-11-07T16:56:52.381Z,-28.2
2022-11-07T16:58:53.733Z,-28.3
2022-11-07T17:00:55.618Z,-28.2
2022-11-07T17:07:00.137Z,-28.2
2022-11-07T17:09:06.086Z,-28.2
2022-11-07T17:11:03.646Z,-28.3
2022-11-07T17:13:04.667Z,-28.5
2022-11-07T17:15:05.619Z,-28.7
2022-11-07T17:17:07.488Z,-28.4
2022-11-07T17:21:10.669Z,-28.3
2022-11-07T17:23:11.795Z,-28.5
2022-11-07T17:25:13.193Z,-28.2
2022-11-07T17:27:14.860Z,-28.4
2022-11-07T17:33:18.675Z,-28.3
2022-11-07T17:35:31.961Z,-28.3
2022-11-07T17:37:21.664Z,-28.2
2022-11-07T17:39:22.553Z,-28.3
2022-11-07T17:41:23.571Z,-28.3
2022-11-07T17:43:25.077Z,-28.5
2022-11-07T17:47:27.056Z,-28.4
2022-11-07T17:49:28.182Z,-28.4
2022-11-07T17:51:29.903Z,-28.2
2022-11-07T17:53:31.638Z,-27.9
2022-11-07T17:55:33.017Z,-28.3
2022-11-07T17:57:34.213Z,-28.3
2022-11-07T17:59:35.237Z,-28.3
2022-11-07T18:01:37.057Z,-28.5
2022-11-07T18:03:37.895Z,-28.1
2022-11-07T18:05:39.371Z,-28.3
2022-11-07T18:07:40.435Z,-28.3
2022-11-07T18:09:42.268Z,-28.4
2022-11-07T18:11:43.262Z,-28.3
2022-11-07T18:13:44.828Z,-28.6
2022-11-07T18:15:46.037Z,-28.4
2022-11-07T18:17:47.535Z,-28.2
2022-11-07T18:19:48.734Z,-28.3
2022-11-07T18:21:50.366Z,-28.4
2022-11-07T18:23:51.751Z,-28.2
2022-11-07T18:25:53.487Z,-28.2
2022-11-07T18:27:54.992Z,-28.3
2022-11-07T18:29:56.156Z,-28.3
2022-11-07T18:31:57.537Z,-28
2022-11-07T18:33:59.260Z,-28.3
2022-11-07T18:36:00.493Z,-28.3
2022-11-07T18:38:01.865Z,-28.5
2022-11-07T18:40:03.226Z,-28.4
2022-11-07T18:42:04.847Z,-28.6
2022-11-07T18:48:09.143Z,-28.3
2022-11-07T18:50:11.046Z,-28.2
2022-11-07T18:52:12.773Z,-28.4
2022-11-07T18:54:13.962Z,-28.5
2022-11-07T18:56:15.637Z,-28.2
2022-11-07T18:58:17.622Z,-28.3
2022-11-07T19:00:19.023Z,-28.2
2022-11-07T19:02:20.080Z,-28
2022-11-07T19:04:21.153Z,-28.4
2022-11-07T19:08:24.119Z,-28.4
2022-11-07T19:12:26.244Z,-28.5
2022-11-07T19:14:27.610Z,-28.4
2022-11-07T19:16:28.529Z,-28.5
2022-11-07T19:18:30.264Z,-28.7
2022-11-07T19:20:31.302Z,-28.3
2022-11-07T19:22:33.027Z,-28.1
2022-11-07T19:24:34.371Z,-28.4
2022-11-07T19:26:35.663Z,-28.4
2022-11-07T19:28:36.982Z,-28.4
2022-11-07T19:30:38.256Z,-28.2
2022-11-07T19:32:39.476Z,-28.3
2022-11-07T19:34:41.381Z,-28.9
2022-11-07T19:36:42.815Z,-28.3
2022-11-07T19:38:43.917Z,-28.2
2022-11-07T19:40:45.014Z,-28.3
2022-11-07T19:42:46.455Z,-28
2022-11-07T19:44:51.663Z,-28
2022-11-07T19:46:49.554Z,-28.2
2022-11-07T19:48:51.256Z,-28.3
2022-11-07T19:50:52.988Z,-28.3
2022-11-07T19:52:53.986Z,-28.3
2022-11-07T19:54:54.999Z,-28.2
2022-11-07T19:56:57.534Z,-28.4
2022-11-07T20:00:58.645Z,-28
2022-11-07T20:03:00.107Z,-28
2022-11-07T20:05:01.221Z,-28.3
2022-11-07T20:07:02.688Z,-28.4
2022-11-07T20:13:07.365Z,-28.2
2022-11-07T20:15:09.224Z,-28.2
2022-11-07T20:17:10.384Z,-28.2
2022-11-07T20:19:12.297Z,-28.5
2022-11-07T20:21:13.962Z,-28.3
2022-11-07T20:23:15.384Z,-28.3
2022-11-07T20:27:17.630Z,-28.5
2022-11-07T20:29:18.663Z,-28.2
2022-11-07T20:31:20.574Z,-28.4
2022-11-07T20:33:22.262Z,-28.5
2022-11-07T20:35:23.834Z,-28.2
2022-11-07T20:37:25.743Z,-28.2
2022-11-07T20:39:27.132Z,-28.4
2022-11-07T20:41:28.322Z,-28.4
2022-11-07T20:43:29.419Z,-28.2
2022-11-07T20:45:30.822Z,-28.4
2022-11-07T20:49:33.492Z,-28.6
2022-11-07T20:51:34.446Z,-28.5
2022-11-07T20:53:36.076Z,-28.2
2022-11-07T20:55:36.912Z,-28.3
2022-11-07T20:57:38.511Z,-28.2
2022-11-07T20:59:40.381Z,-28.5
2022-11-07T21:01:42.026Z,-28.4
2022-11-07T21:03:42.904Z,-28.5
2022-11-07T21:05:44.739Z,-28.3
2022-11-07T21:11:48.667Z,-28.1
2022-11-07T21:13:53.118Z,-28.4
2022-11-07T21:15:51.520Z,-28.2
2022-11-07T21:17:52.695Z,-28.3
2022-11-07T21:19:53.843Z,-28.6
2022-11-07T21:21:55.533Z,-28.4
2022-11-07T21:25:58.568Z,-28.3
2022-11-07T21:27:59.644Z,-28.5
2022-11-07T21:30:01.375Z,-28.3
2022-11-07T21:32:03.101Z,-28.3
2022-11-07T21:36:49.954Z,-28.2
2022-11-07T21:38:51.460Z,-28.4
2022-11-07T21:40:52.428Z,-28.3
2022-11-07T21:42:54.267Z,-28.1
2022-11-07T21:44:55.566Z,-28.5
2022-11-07T21:46:57.310Z,-28.3
2022-11-07T21:48:58.937Z,-28.4
2022-11-07T21:51:00.017Z,-28.3
2022-11-07T21:53:01.607Z,-28
2022-11-07T21:55:02.671Z,-28.2
2022-11-07T21:57:04.480Z,-28.2
2022-11-07T21:59:05.581Z,-28.2
2022-11-07T22:01:06.896Z,-28.4
2022-11-07T22:03:08.503Z,-28.3
2022-11-07T22:05:10.077Z,-28.2
2022-11-07T22:07:11.806Z,-28.4
2022-11-07T22:09:13.581Z,-28.3
2022-11-07T22:11:14.722Z,-28.4
2022-11-07T22:13:16.286Z,-28.5
2022-11-07T22:15:18.066Z,-28.4
2022-11-07T22:19:20.869Z,-28.4
2022-11-07T22:21:22.541Z,-28.4
2022-11-07T22:23:24.468Z,-28.3
2022-11-07T22:25:25.962Z,-28.4
2022-11-07T22:29:28.761Z,-28.4
2022-11-07T22:31:30.312Z,-28.6
2022-11-07T22:35:33.132Z,-28.6
2022-11-07T22:37:34.723Z,-28.2
2022-11-07T22:39:35.760Z,-28.1
2022-11-07T22:41:36.768Z,-28.2
2022-11-07T22:43:38.233Z,-28.4
2022-11-07T22:45:39.536Z,-28.4
2022-11-07T22:47:40.773Z,-28.2
2022-11-07T22:49:42.411Z,-28
2022-11-07T22:51:43.419Z,-28.2
2022-11-07T22:53:44.998Z,-28.3
2022-11-07T22:55:46.341Z,-28.3
2022-11-07T22:57:47.750Z,-28.3
2022-11-07T22:59:49.516Z,-28.3
2022-11-07T23:01:51.354Z,-28.3
2022-11-07T23:03:52.771Z,-28
2022-11-07T23:05:54.329Z,-28.6
2022-11-07T23:07:55.979Z,-28.4
2022-11-07T23:13:59.209Z,-28.4
2022-11-07T23:16:01.008Z,-28.2
2022-11-07T23:18:02.329Z,-28.4
2022-11-07T23:20:03.842Z,-28.3
2022-11-07T23:22:05.709Z,-28.4
2022-11-07T23:24:06.638Z,-28.6
2022-11-07T23:28:09.442Z,-28.3
2022-11-07T23:30:10.513Z,-28.3
2022-11-07T23:32:12.243Z,-28.3
2022-11-07T23:34:13.268Z,-28.4
2022-11-07T23:36:14.369Z,-28.4
2022-11-07T23:38:16.355Z,-28.1
2022-11-07T23:40:17.401Z,-28.3
2022-11-07T23:42:18.782Z,-28.3
2022-11-07T23:44:20.697Z,-28.2
2022-11-07T23:46:22.477Z,-28.3
2022-11-07T23:50:25.311Z,-28.4
2022-11-07T23:52:26.847Z,-28.6
2022-11-07T23:54:28.389Z,-28.2
2022-11-07T23:56:30.284Z,-28.3
2022-11-07T23:58:31.785Z,-28.5
